sensor_id;sensor_type;location;lat;lon;timestamp;P1;P2;P0
73565;PMS5003;61846;52.970;-3.168;2023-04-10T00:00:46;20;16;
73565;PMS5003;61846;52.970;-3.168;2023-04-10T00:03:11;30;23;
73565;PMS5003;61846;52.970;-3.168;2023-04-10T00:05:37;18;17;
73565;PMS5003;61846;52.970;-3.168;2023-04-10T00:08:03;27;21;
73565;PMS5003;61846;52.970;-3.168;2023-04-10T00:10:28;19;19;
73565;PMS5003;61846;52.970;-3.168;2023-04-10T00:12:53;17;17;
73565;PMS5003;61846;52.970;-3.168;2023-04-10T00:15:18;18;15;
73565;PMS5003;61846;52.970;-3.168;2023-04-10T00:17:44;20;14;
73565;PMS5003;61846;52.970;-3.168;2023-04-10T00:20:10;18;16;
73565;PMS5003;61846;52.970;-3.168;2023-04-10T00:22:35;16;14;
73565;PMS5003;61846;52.970;-3.168;2023-04-10T00:25:00;11;11;
73565;PMS5003;61846;52.970;-3.168;2023-04-10T00:27:26;16;14;
73565;PMS5003;61846;52.970;-3.168;2023-04-10T00:29:52;12;12;
73565;PMS5003;61846;52.970;-3.168;2023-04-10T00:32:17;14;14;
73565;PMS5003;61846;52.970;-3.168;2023-04-10T00:34:43;10;10;
73565;PMS5003;61846;52.970;-3.168;2023-04-10T00:37:09;14;12;
73565;PMS5003;61846;52.970;-3.168;2023-04-10T00:39:34;10;10;
73565;PMS5003;61846;52.970;-3.168;2023-04-10T00:41:59;10;8;
73565;PMS5003;61846;52.970;-3.168;2023-04-10T00:44:25;8;8;
73565;PMS5003;61846;52.970;-3.168;2023-04-10T00:46:51;12;11;
73565;PMS5003;61846;52.970;-3.168;2023-04-10T00:49:16;7;7;
73565;PMS5003;61846;52.970;-3.168;2023-04-10T00:51:41;7;7;
73565;PMS5003;61846;52.970;-3.168;2023-04-10T00:54:07;6;5;
73565;PMS5003;61846;52.970;-3.168;2023-04-10T00:56:33;4;4;
73565;PMS5003;61846;52.970;-3.168;2023-04-10T00:58:58;3;3;
73565;PMS5003;61846;52.970;-3.168;2023-04-10T01:01:24;2;2;
73565;PMS5003;61846;52.970;-3.168;2023-04-10T01:03:49;2;1;
73565;PMS5003;61846;52.970;-3.168;2023-04-10T01:06:17;0;0;
73565;PMS5003;61846;52.970;-3.168;2023-04-10T01:08:44;0;0;
73565;PMS5003;61846;52.970;-3.168;2023-04-10T01:11:08;0;0;
73565;PMS5003;61846;52.970;-3.168;2023-04-10T01:13:33;1;1;
73565;PMS5003;61846;52.970;-3.168;2023-04-10T01:15:59;1;1;
73565;PMS5003;61846;52.970;-3.168;2023-04-10T01:18:24;0;0;
73565;PMS5003;61846;52.970;-3.168;2023-04-10T01:20:48;2;2;
73565;PMS5003;61846;52.970;-3.168;2023-04-10T01:23:20;2;1;
73565;PMS5003;61846;52.970;-3.168;2023-04-10T01:25:42;2;2;
73565;PMS5003;61846;52.970;-3.168;2023-04-10T01:28:14;1;1;
73565;PMS5003;61846;52.970;-3.168;2023-04-10T01:30:31;1;1;
73565;PMS5003;61846;52.970;-3.168;2023-04-10T01:32:57;2;1;
73565;PMS5003;61846;52.970;-3.168;2023-04-10T01:35:22;4;1;
73565;PMS5003;61846;52.970;-3.168;2023-04-10T01:37:48;1;1;
73565;PMS5003;61846;52.970;-3.168;2023-04-10T01:40:14;0;0;
73565;PMS5003;61846;52.970;-3.168;2023-04-10T01:42:40;0;0;
73565;PMS5003;61846;52.970;-3.168;2023-04-10T01:45:05;0;0;
73565;PMS5003;61846;52.970;-3.168;2023-04-10T01:47:30;2;1;
73565;PMS5003;61846;52.970;-3.168;2023-04-10T01:49:56;1;1;
73565;PMS5003;61846;52.970;-3.168;2023-04-10T01:52:21;2;2;
73565;PMS5003;61846;52.970;-3.168;2023-04-10T01:54:47;1;1;
73565;PMS5003;61846;52.970;-3.168;2023-04-10T01:57:12;1;1;
73565;PMS5003;61846;52.970;-3.168;2023-04-10T01:59:38;0;0;
73565;PMS5003;61846;52.970;-3.168;2023-04-10T02:02:03;0;0;
73565;PMS5003;61846;52.970;-3.168;2023-04-10T02:04:29;1;1;
73565;PMS5003;61846;52.970;-3.168;2023-04-10T02:06:58;1;1;
73565;PMS5003;61846;52.970;-3.168;2023-04-10T02:09:22;0;0;
73565;PMS5003;61846;52.970;-3.168;2023-04-10T02:11:46;0;0;
73565;PMS5003;61846;52.970;-3.168;2023-04-10T02:14:12;0;0;
73565;PMS5003;61846;52.970;-3.168;2023-04-10T02:16:37;0;0;
73565;PMS5003;61846;52.970;-3.168;2023-04-10T02:19:03;1;0;
73565;PMS5003;61846;52.970;-3.168;2023-04-10T02:21:28;0;0;
73565;PMS5003;61846;52.970;-3.168;2023-04-10T02:23:55;0;0;
73565;PMS5003;61846;52.970;-3.168;2023-04-10T02:26:19;0;0;
73565;PMS5003;61846;52.970;-3.168;2023-04-10T02:28:45;1;1;
73565;PMS5003;61846;52.970;-3.168;2023-04-10T02:31:10;0;0;
73565;PMS5003;61846;52.970;-3.168;2023-04-10T02:33:36;0;0;
73565;PMS5003;61846;52.970;-3.168;2023-04-10T02:36:02;0;0;
73565;PMS5003;61846;52.970;-3.168;2023-04-10T02:38:27;0;0;
73565;PMS5003;61846;52.970;-3.168;2023-04-10T02:40:53;1;1;
73565;PMS5003;61846;52.970;-3.168;2023-04-10T02:43:18;0;0;
73565;PMS5003;61846;52.970;-3.168;2023-04-10T02:45:44;0;0;
73565;PMS5003;61846;52.970;-3.168;2023-04-10T02:48:09;0;0;
73565;PMS5003;61846;52.970;-3.168;2023-04-10T02:50:35;0;0;
73565;PMS5003;61846;52.970;-3.168;2023-04-10T02:53:01;0;0;
73565;PMS5003;61846;52.970;-3.168;2023-04-10T02:55:26;0;0;
73565;PMS5003;61846;52.970;-3.168;2023-04-10T02:57:52;0;0;
73565;PMS5003;61846;52.970;-3.168;2023-04-10T03:00:17;0;0;
73565;PMS5003;61846;52.970;-3.168;2023-04-10T03:02:43;0;0;
73565;PMS5003;61846;52.970;-3.168;2023-04-10T03:05:08;0;0;
73565;PMS5003;61846;52.970;-3.168;2023-04-10T03:07:34;0;0;
73565;PMS5003;61846;52.970;-3.168;2023-04-10T03:10:00;0;0;
73565;PMS5003;61846;52.970;-3.168;2023-04-10T03:12:25;0;0;
73565;PMS5003;61846;52.970;-3.168;2023-04-10T03:14:51;1;1;
73565;PMS5003;61846;52.970;-3.168;2023-04-10T03:17:16;0;0;
73565;PMS5003;61846;52.970;-3.168;2023-04-10T03:19:42;0;0;
73565;PMS5003;61846;52.970;-3.168;2023-04-10T03:22:07;0;0;
73565;PMS5003;61846;52.970;-3.168;2023-04-10T03:24:33;0;0;
73565;PMS5003;61846;52.970;-3.168;2023-04-10T03:26:58;1;1;
73565;PMS5003;61846;52.970;-3.168;2023-04-10T03:29:24;0;0;
73565;PMS5003;61846;52.970;-3.168;2023-04-10T03:31:50;0;0;
73565;PMS5003;61846;52.970;-3.168;2023-04-10T03:34:15;0;0;
73565;PMS5003;61846;52.970;-3.168;2023-04-10T03:36:41;0;0;
73565;PMS5003;61846;52.970;-3.168;2023-04-10T03:39:06;2;0;
73565;PMS5003;61846;52.970;-3.168;2023-04-10T03:41:32;0;0;
73565;PMS5003;61846;52.970;-3.168;2023-04-10T03:43:57;0;0;
73565;PMS5003;61846;52.970;-3.168;2023-04-10T03:46:23;0;0;
73565;PMS5003;61846;52.970;-3.168;2023-04-10T03:48:48;0;0;
73565;PMS5003;61846;52.970;-3.168;2023-04-10T03:51:14;0;0;
73565;PMS5003;61846;52.970;-3.168;2023-04-10T03:53:39;1;0;
73565;PMS5003;61846;52.970;-3.168;2023-04-10T03:56:06;3;1;
73565;PMS5003;61846;52.970;-3.168;2023-04-10T03:58:30;0;0;
73565;PMS5003;61846;52.970;-3.168;2023-04-10T04:00:56;1;0;
73565;PMS5003;61846;52.970;-3.168;2023-04-10T04:03:21;0;0;
73565;PMS5003;61846;52.970;-3.168;2023-04-10T04:05:47;0;0;
73565;PMS5003;61846;52.970;-3.168;2023-04-10T04:08:12;0;0;
73565;PMS5003;61846;52.970;-3.168;2023-04-10T04:10:38;2;0;
73565;PMS5003;61846;52.970;-3.168;2023-04-10T04:13:03;2;0;
73565;PMS5003;61846;52.970;-3.168;2023-04-10T04:15:29;1;1;
73565;PMS5003;61846;52.970;-3.168;2023-04-10T04:17:55;3;0;
73565;PMS5003;61846;52.970;-3.168;2023-04-10T04:20:20;0;0;
73565;PMS5003;61846;52.970;-3.168;2023-04-10T04:22:46;0;0;
73565;PMS5003;61846;52.970;-3.168;2023-04-10T04:25:11;0;0;
73565;PMS5003;61846;52.970;-3.168;2023-04-10T04:27:37;3;0;
73565;PMS5003;61846;52.970;-3.168;2023-04-10T04:30:02;1;1;
73565;PMS5003;61846;52.970;-3.168;2023-04-10T04:32:28;1;1;
73565;PMS5003;61846;52.970;-3.168;2023-04-10T04:34:53;0;0;
73565;PMS5003;61846;52.970;-3.168;2023-04-10T04:37:19;1;1;
73565;PMS5003;61846;52.970;-3.168;2023-04-10T04:39:44;1;1;
73565;PMS5003;61846;52.970;-3.168;2023-04-10T04:42:10;1;1;
73565;PMS5003;61846;52.970;-3.168;2023-04-10T04:44:36;0;0;
73565;PMS5003;61846;52.970;-3.168;2023-04-10T04:47:01;2;0;
73565;PMS5003;61846;52.970;-3.168;2023-04-10T04:49:27;2;0;
73565;PMS5003;61846;52.970;-3.168;2023-04-10T04:51:52;0;0;
73565;PMS5003;61846;52.970;-3.168;2023-04-10T04:54:18;1;1;
73565;PMS5003;61846;52.970;-3.168;2023-04-10T04:56:43;1;1;
73565;PMS5003;61846;52.970;-3.168;2023-04-10T04:59:09;2;1;
73565;PMS5003;61846;52.970;-3.168;2023-04-10T05:01:34;4;1;
73565;PMS5003;61846;52.970;-3.168;2023-04-10T05:04:00;4;3;
73565;PMS5003;61846;52.970;-3.168;2023-04-10T05:06:25;3;1;
73565;PMS5003;61846;52.970;-3.168;2023-04-10T05:08:51;2;0;
73565;PMS5003;61846;52.970;-3.168;2023-04-10T05:11:16;2;2;
73565;PMS5003;61846;52.970;-3.168;2023-04-10T05:13:42;3;2;
73565;PMS5003;61846;52.970;-3.168;2023-04-10T05:16:07;1;0;
73565;PMS5003;61846;52.970;-3.168;2023-04-10T05:18:33;4;1;
73565;PMS5003;61846;52.970;-3.168;2023-04-10T05:20:58;3;2;
73565;PMS5003;61846;52.970;-3.168;2023-04-10T05:23:24;2;2;
73565;PMS5003;61846;52.970;-3.168;2023-04-10T05:25:50;1;0;
73565;PMS5003;61846;52.970;-3.168;2023-04-10T05:28:15;2;1;
73565;PMS5003;61846;52.970;-3.168;2023-04-10T05:30:41;4;0;
73565;PMS5003;61846;52.970;-3.168;2023-04-10T05:33:06;5;2;
73565;PMS5003;61846;52.970;-3.168;2023-04-10T05:35:32;4;2;
73565;PMS5003;61846;52.970;-3.168;2023-04-10T05:37:57;5;3;
73565;PMS5003;61846;52.970;-3.168;2023-04-10T05:40:23;2;2;
73565;PMS5003;61846;52.970;-3.168;2023-04-10T05:42:48;2;1;
73565;PMS5003;61846;52.970;-3.168;2023-04-10T05:45:14;6;2;
73565;PMS5003;61846;52.970;-3.168;2023-04-10T05:47:39;2;0;
73565;PMS5003;61846;52.970;-3.168;2023-04-10T05:50:05;6;2;
73565;PMS5003;61846;52.970;-3.168;2023-04-10T05:52:30;3;3;
73565;PMS5003;61846;52.970;-3.168;2023-04-10T05:54:56;1;0;
73565;PMS5003;61846;52.970;-3.168;2023-04-10T05:57:22;3;2;
73565;PMS5003;61846;52.970;-3.168;2023-04-10T05:59:47;1;1;
73565;PMS5003;61846;52.970;-3.168;2023-04-10T06:02:13;4;3;
73565;PMS5003;61846;52.970;-3.168;2023-04-10T06:04:38;2;1;
73565;PMS5003;61846;52.970;-3.168;2023-04-10T06:07:03;1;0;
73565;PMS5003;61846;52.970;-3.168;2023-04-10T06:09:29;2;2;
73565;PMS5003;61846;52.970;-3.168;2023-04-10T06:11:54;0;0;
73565;PMS5003;61846;52.970;-3.168;2023-04-10T06:14:20;5;2;
73565;PMS5003;61846;52.970;-3.168;2023-04-10T06:16:45;3;3;
73565;PMS5003;61846;52.970;-3.168;2023-04-10T06:19:11;14;13;
73565;PMS5003;61846;52.970;-3.168;2023-04-10T06:21:36;5;2;
73565;PMS5003;61846;52.970;-3.168;2023-04-10T06:24:01;3;1;
73565;PMS5003;61846;52.970;-3.168;2023-04-10T06:26:27;3;3;
73565;PMS5003;61846;52.970;-3.168;2023-04-10T06:28:52;6;3;
73565;PMS5003;61846;52.970;-3.168;2023-04-10T06:31:18;3;2;
73565;PMS5003;61846;52.970;-3.168;2023-04-10T06:33:43;4;2;
73565;PMS5003;61846;52.970;-3.168;2023-04-10T06:36:09;3;1;
73565;PMS5003;61846;52.970;-3.168;2023-04-10T06:38:35;5;4;
73565;PMS5003;61846;52.970;-3.168;2023-04-10T06:41:00;1;1;
73565;PMS5003;61846;52.970;-3.168;2023-04-10T06:43:25;8;3;
73565;PMS5003;61846;52.970;-3.168;2023-04-10T06:45:51;6;2;
73565;PMS5003;61846;52.970;-3.168;2023-04-10T06:48:17;5;3;
73565;PMS5003;61846;52.970;-3.168;2023-04-10T06:50:42;2;2;
73565;PMS5003;61846;52.970;-3.168;2023-04-10T06:53:08;8;6;
73565;PMS5003;61846;52.970;-3.168;2023-04-10T06:55:33;9;7;
73565;PMS5003;61846;52.970;-3.168;2023-04-10T06:57:58;9;3;
73565;PMS5003;61846;52.970;-3.168;2023-04-10T07:00:24;14;4;
73565;PMS5003;61846;52.970;-3.168;2023-04-10T07:02:49;12;6;
73565;PMS5003;61846;52.970;-3.168;2023-04-10T07:05:15;5;4;
73565;PMS5003;61846;52.970;-3.168;2023-04-10T07:07:40;6;4;
73565;PMS5003;61846;52.970;-3.168;2023-04-10T07:10:06;75;64;
73565;PMS5003;61846;52.970;-3.168;2023-04-10T07:12:32;31;24;
73565;PMS5003;61846;52.970;-3.168;2023-04-10T07:14:57;6;4;
73565;PMS5003;61846;52.970;-3.168;2023-04-10T07:17:23;7;7;
73565;PMS5003;61846;52.970;-3.168;2023-04-10T07:19:48;12;8;
73565;PMS5003;61846;52.970;-3.168;2023-04-10T07:22:13;5;3;
73565;PMS5003;61846;52.970;-3.168;2023-04-10T07:24:39;6;6;
73565;PMS5003;61846;52.970;-3.168;2023-04-10T07:27:04;12;8;
73565;PMS5003;61846;52.970;-3.168;2023-04-10T07:29:30;6;3;
73565;PMS5003;61846;52.970;-3.168;2023-04-10T07:31:56;6;4;
73565;PMS5003;61846;52.970;-3.168;2023-04-10T07:34:21;3;3;
73565;PMS5003;61846;52.970;-3.168;2023-04-10T07:36:47;8;4;
73565;PMS5003;61846;52.970;-3.168;2023-04-10T07:39:12;5;5;
73565;PMS5003;61846;52.970;-3.168;2023-04-10T07:41:38;17;11;
73565;PMS5003;61846;52.970;-3.168;2023-04-10T07:44:03;15;7;
73565;PMS5003;61846;52.970;-3.168;2023-04-10T07:46:29;6;6;
73565;PMS5003;61846;52.970;-3.168;2023-04-10T07:48:54;7;5;
73565;PMS5003;61846;52.970;-3.168;2023-04-10T07:51:20;8;5;
73565;PMS5003;61846;52.970;-3.168;2023-04-10T07:53:45;4;3;
73565;PMS5003;61846;52.970;-3.168;2023-04-10T07:56:14;9;4;
73565;PMS5003;61846;52.970;-3.168;2023-04-10T07:58:36;7;5;
73565;PMS5003;61846;52.970;-3.168;2023-04-10T08:01:01;13;8;
73565;PMS5003;61846;52.970;-3.168;2023-04-10T08:03:27;9;7;
73565;PMS5003;61846;52.970;-3.168;2023-04-10T08:05:52;4;4;
73565;PMS5003;61846;52.970;-3.168;2023-04-10T08:08:17;5;3;
73565;PMS5003;61846;52.970;-3.168;2023-04-10T08:10:43;5;4;
73565;PMS5003;61846;52.970;-3.168;2023-04-10T08:13:08;3;2;
73565;PMS5003;61846;52.970;-3.168;2023-04-10T08:15:34;8;0;
73565;PMS5003;61846;52.970;-3.168;2023-04-10T08:17:59;5;3;
73565;PMS5003;61846;52.970;-3.168;2023-04-10T08:20:24;8;5;
73565;PMS5003;61846;52.970;-3.168;2023-04-10T08:22:50;8;5;
73565;PMS5003;61846;52.970;-3.168;2023-04-10T08:25:15;8;4;
73565;PMS5003;61846;52.970;-3.168;2023-04-10T08:27:41;4;2;
73565;PMS5003;61846;52.970;-3.168;2023-04-10T08:30:07;4;3;
73565;PMS5003;61846;52.970;-3.168;2023-04-10T08:32:32;8;3;
73565;PMS5003;61846;52.970;-3.168;2023-04-10T08:34:58;5;3;
73565;PMS5003;61846;52.970;-3.168;2023-04-10T08:37:24;5;4;
73565;PMS5003;61846;52.970;-3.168;2023-04-10T08:39:49;6;3;
73565;PMS5003;61846;52.970;-3.168;2023-04-10T08:42:14;4;4;
73565;PMS5003;61846;52.970;-3.168;2023-04-10T08:44:40;5;3;
73565;PMS5003;61846;52.970;-3.168;2023-04-10T08:47:05;6;4;
73565;PMS5003;61846;52.970;-3.168;2023-04-10T08:49:35;3;3;
73565;PMS5003;61846;52.970;-3.168;2023-04-10T08:51:57;5;0;
73565;PMS5003;61846;52.970;-3.168;2023-04-10T08:54:24;3;1;
73565;PMS5003;61846;52.970;-3.168;2023-04-10T08:56:49;10;7;
73565;PMS5003;61846;52.970;-3.168;2023-04-10T08:59:13;7;4;
73565;PMS5003;61846;52.970;-3.168;2023-04-10T09:01:38;5;3;
73565;PMS5003;61846;52.970;-3.168;2023-04-10T09:04:03;2;2;
73565;PMS5003;61846;52.970;-3.168;2023-04-10T09:06:29;3;3;
73565;PMS5003;61846;52.970;-3.168;2023-04-10T09:08:54;4;3;
73565;PMS5003;61846;52.970;-3.168;2023-04-10T09:11:20;4;2;
73565;PMS5003;61846;52.970;-3.168;2023-04-10T09:13:45;3;2;
73565;PMS5003;61846;52.970;-3.168;2023-04-10T09:16:12;3;3;
73565;PMS5003;61846;52.970;-3.168;2023-04-10T09:18:42;6;3;
73565;PMS5003;61846;52.970;-3.168;2023-04-10T09:21:05;6;4;
73565;PMS5003;61846;52.970;-3.168;2023-04-10T09:23:27;9;4;
73565;PMS5003;61846;52.970;-3.168;2023-04-10T09:25:52;2;2;
73565;PMS5003;61846;52.970;-3.168;2023-04-10T09:28:18;2;2;
73565;PMS5003;61846;52.970;-3.168;2023-04-10T09:30:43;4;2;
73565;PMS5003;61846;52.970;-3.168;2023-04-10T09:35:35;4;3;
73565;PMS5003;61846;52.970;-3.168;2023-04-10T09:38:00;4;3;
73565;PMS5003;61846;52.970;-3.168;2023-04-10T09:40:25;7;3;
73565;PMS5003;61846;52.970;-3.168;2023-04-10T09:42:51;1;1;
73565;PMS5003;61846;52.970;-3.168;2023-04-10T09:45:16;6;1;
73565;PMS5003;61846;52.970;-3.168;2023-04-10T09:47:41;6;3;
73565;PMS5003;61846;52.970;-3.168;2023-04-10T09:50:07;3;2;
73565;PMS5003;61846;52.970;-3.168;2023-04-10T09:52:33;6;3;
73565;PMS5003;61846;52.970;-3.168;2023-04-10T09:54:58;4;1;
73565;PMS5003;61846;52.970;-3.168;2023-04-10T09:57:24;7;2;
73565;PMS5003;61846;52.970;-3.168;2023-04-10T09:59:49;5;2;
73565;PMS5003;61846;52.970;-3.168;2023-04-10T10:02:15;2;2;
73565;PMS5003;61846;52.970;-3.168;2023-04-10T10:04:40;4;3;
73565;PMS5003;61846;52.970;-3.168;2023-04-10T10:07:05;4;2;
73565;PMS5003;61846;52.970;-3.168;2023-04-10T10:09:31;1;1;
73565;PMS5003;61846;52.970;-3.168;2023-04-10T10:11:56;9;1;
73565;PMS5003;61846;52.970;-3.168;2023-04-10T10:14:22;3;2;
73565;PMS5003;61846;52.970;-3.168;2023-04-10T10:16:48;2;2;
73565;PMS5003;61846;52.970;-3.168;2023-04-10T10:19:15;1;1;
73565;PMS5003;61846;52.970;-3.168;2023-04-10T10:21:37;3;2;
73565;PMS5003;61846;52.970;-3.168;2023-04-10T10:24:06;2;0;
73565;PMS5003;61846;52.970;-3.168;2023-04-10T10:26:29;3;0;
73565;PMS5003;61846;52.970;-3.168;2023-04-10T10:28:54;3;2;
73565;PMS5003;61846;52.970;-3.168;2023-04-10T10:31:19;2;2;
73565;PMS5003;61846;52.970;-3.168;2023-04-10T10:33:45;4;3;
73565;PMS5003;61846;52.970;-3.168;2023-04-10T10:36:10;7;4;
73565;PMS5003;61846;52.970;-3.168;2023-04-10T10:38:36;6;3;
73565;PMS5003;61846;52.970;-3.168;2023-04-10T10:41:04;3;3;
73565;PMS5003;61846;52.970;-3.168;2023-04-10T10:43:31;3;2;
73565;PMS5003;61846;52.970;-3.168;2023-04-10T10:45:53;6;3;
73565;PMS5003;61846;52.970;-3.168;2023-04-10T10:48:17;8;6;
73565;PMS5003;61846;52.970;-3.168;2023-04-10T10:50:50;2;2;
73565;PMS5003;61846;52.970;-3.168;2023-04-10T10:53:08;2;2;
73565;PMS5003;61846;52.970;-3.168;2023-04-10T10:55:34;1;1;
73565;PMS5003;61846;52.970;-3.168;2023-04-10T10:58:00;2;2;
73565;PMS5003;61846;52.970;-3.168;2023-04-10T11:00:25;0;0;
73565;PMS5003;61846;52.970;-3.168;2023-04-10T11:10:07;0;0;
73565;PMS5003;61846;52.970;-3.168;2023-04-10T11:12:32;0;0;
73565;PMS5003;61846;52.970;-3.168;2023-04-10T11:14:58;0;0;
73565;PMS5003;61846;52.970;-3.168;2023-04-10T11:22:14;1;1;
73565;PMS5003;61846;52.970;-3.168;2023-04-10T11:27:05;0;0;
73565;PMS5003;61846;52.970;-3.168;2023-04-10T11:29:32;1;1;
73565;PMS5003;61846;52.970;-3.168;2023-04-10T11:31:56;6;5;
73565;PMS5003;61846;52.970;-3.168;2023-04-10T11:34:22;0;0;
73565;PMS5003;61846;52.970;-3.168;2023-04-10T11:36:47;2;0;
73565;PMS5003;61846;52.970;-3.168;2023-04-10T11:39:13;6;6;
73565;PMS5003;61846;52.970;-3.168;2023-04-10T11:41:38;2;0;
73565;PMS5003;61846;52.970;-3.168;2023-04-10T11:44:04;1;1;
73565;PMS5003;61846;52.970;-3.168;2023-04-10T11:46:30;0;0;
73565;PMS5003;61846;52.970;-3.168;2023-04-10T11:48:55;1;1;
73565;PMS5003;61846;52.970;-3.168;2023-04-10T11:51:20;0;0;
73565;PMS5003;61846;52.970;-3.168;2023-04-10T11:53:46;4;4;
73565;PMS5003;61846;52.970;-3.168;2023-04-10T11:56:15;3;3;
73565;PMS5003;61846;52.970;-3.168;2023-04-10T11:58:37;7;6;
73565;PMS5003;61846;52.970;-3.168;2023-04-10T12:01:03;3;3;
73565;PMS5003;61846;52.970;-3.168;2023-04-10T12:03:32;1;0;
73565;PMS5003;61846;52.970;-3.168;2023-04-10T12:05:53;1;1;
73565;PMS5003;61846;52.970;-3.168;2023-04-10T12:08:19;3;3;
73565;PMS5003;61846;52.970;-3.168;2023-04-10T12:10:45;2;2;
73565;PMS5003;61846;52.970;-3.168;2023-04-10T12:15:35;0;0;
73565;PMS5003;61846;52.970;-3.168;2023-04-10T12:18:01;2;0;
73565;PMS5003;61846;52.970;-3.168;2023-04-10T12:20:27;1;0;
73565;PMS5003;61846;52.970;-3.168;2023-04-10T12:22:53;1;0;
73565;PMS5003;61846;52.970;-3.168;2023-04-10T12:25:19;0;0;
73565;PMS5003;61846;52.970;-3.168;2023-04-10T12:27:47;2;1;
73565;PMS5003;61846;52.970;-3.168;2023-04-10T12:30:08;1;0;
73565;PMS5003;61846;52.970;-3.168;2023-04-10T12:32:34;0;0;
73565;PMS5003;61846;52.970;-3.168;2023-04-10T12:34:59;4;0;
73565;PMS5003;61846;52.970;-3.168;2023-04-10T12:37:25;0;0;
73565;PMS5003;61846;52.970;-3.168;2023-04-10T12:39:50;0;0;
73565;PMS5003;61846;52.970;-3.168;2023-04-10T12:42:17;2;0;
73565;PMS5003;61846;52.970;-3.168;2023-04-10T12:44:50;0;0;
73565;PMS5003;61846;52.970;-3.168;2023-04-10T12:47:07;0;0;
73565;PMS5003;61846;52.970;-3.168;2023-04-10T12:49:32;2;0;
73565;PMS5003;61846;52.970;-3.168;2023-04-10T12:51:58;0;0;
73565;PMS5003;61846;52.970;-3.168;2023-04-10T12:54:27;1;0;
73565;PMS5003;61846;52.970;-3.168;2023-04-10T12:56:49;0;0;
73565;PMS5003;61846;52.970;-3.168;2023-04-10T12:59:14;1;1;
73565;PMS5003;61846;52.970;-3.168;2023-04-10T13:01:40;1;0;
73565;PMS5003;61846;52.970;-3.168;2023-04-10T13:04:05;2;0;
73565;PMS5003;61846;52.970;-3.168;2023-04-10T13:06:31;1;0;
73565;PMS5003;61846;52.970;-3.168;2023-04-10T13:08:56;1;0;
73565;PMS5003;61846;52.970;-3.168;2023-04-10T13:11:22;0;0;
73565;PMS5003;61846;52.970;-3.168;2023-04-10T13:13:47;1;0;
73565;PMS5003;61846;52.970;-3.168;2023-04-10T13:16:13;1;0;
73565;PMS5003;61846;52.970;-3.168;2023-04-10T13:18:38;0;0;
73565;PMS5003;61846;52.970;-3.168;2023-04-10T13:21:04;1;1;
73565;PMS5003;61846;52.970;-3.168;2023-04-10T13:23:29;0;0;
73565;PMS5003;61846;52.970;-3.168;2023-04-10T13:25:55;1;1;
73565;PMS5003;61846;52.970;-3.168;2023-04-10T13:28:20;0;0;
73565;PMS5003;61846;52.970;-3.168;2023-04-10T13:30:45;1;0;
73565;PMS5003;61846;52.970;-3.168;2023-04-10T13:33:11;0;0;
73565;PMS5003;61846;52.970;-3.168;2023-04-10T13:35:36;1;0;
73565;PMS5003;61846;52.970;-3.168;2023-04-10T13:38:02;2;1;
73565;PMS5003;61846;52.970;-3.168;2023-04-10T13:40:27;1;0;
73565;PMS5003;61846;52.970;-3.168;2023-04-10T13:42:52;0;0;
73565;PMS5003;61846;52.970;-3.168;2023-04-10T13:45:18;0;0;
73565;PMS5003;61846;52.970;-3.168;2023-04-10T13:47:43;0;0;
73565;PMS5003;61846;52.970;-3.168;2023-04-10T13:50:09;1;0;
73565;PMS5003;61846;52.970;-3.168;2023-04-10T13:52:34;2;1;
73565;PMS5003;61846;52.970;-3.168;2023-04-10T13:54:59;1;1;
73565;PMS5003;61846;52.970;-3.168;2023-04-10T13:57:25;0;0;
73565;PMS5003;61846;52.970;-3.168;2023-04-10T13:59:50;1;1;
73565;PMS5003;61846;52.970;-3.168;2023-04-10T14:02:16;0;0;
73565;PMS5003;61846;52.970;-3.168;2023-04-10T14:04:41;0;0;
73565;PMS5003;61846;52.970;-3.168;2023-04-10T14:07:07;0;0;
73565;PMS5003;61846;52.970;-3.168;2023-04-10T14:09:32;5;0;
73565;PMS5003;61846;52.970;-3.168;2023-04-10T14:11:58;0;0;
73565;PMS5003;61846;52.970;-3.168;2023-04-10T14:14:23;1;0;
73565;PMS5003;61846;52.970;-3.168;2023-04-10T14:16:49;0;0;
73565;PMS5003;61846;52.970;-3.168;2023-04-10T14:19:14;1;0;
73565;PMS5003;61846;52.970;-3.168;2023-04-10T14:21:40;3;0;
73565;PMS5003;61846;52.970;-3.168;2023-04-10T14:24:05;3;1;
73565;PMS5003;61846;52.970;-3.168;2023-04-10T14:26:30;3;0;
73565;PMS5003;61846;52.970;-3.168;2023-04-10T14:28:56;1;1;
73565;PMS5003;61846;52.970;-3.168;2023-04-10T14:31:22;0;0;
73565;PMS5003;61846;52.970;-3.168;2023-04-10T14:33:48;0;0;
73565;PMS5003;61846;52.970;-3.168;2023-04-10T14:36:12;2;0;
73565;PMS5003;61846;52.970;-3.168;2023-04-10T14:38:38;0;0;
73565;PMS5003;61846;52.970;-3.168;2023-04-10T14:41:04;0;0;
73565;PMS5003;61846;52.970;-3.168;2023-04-10T14:43:29;0;0;
73565;PMS5003;61846;52.970;-3.168;2023-04-10T14:45:55;0;0;
73565;PMS5003;61846;52.970;-3.168;2023-04-10T14:48:20;0;0;
73565;PMS5003;61846;52.970;-3.168;2023-04-10T14:50:46;0;0;
73565;PMS5003;61846;52.970;-3.168;2023-04-10T14:53:11;0;0;
73565;PMS5003;61846;52.970;-3.168;2023-04-10T14:55:37;0;0;
73565;PMS5003;61846;52.970;-3.168;2023-04-10T14:58:03;2;1;
73565;PMS5003;61846;52.970;-3.168;2023-04-10T15:00:28;1;1;
73565;PMS5003;61846;52.970;-3.168;2023-04-10T15:02:54;5;1;
73565;PMS5003;61846;52.970;-3.168;2023-04-10T15:05:20;4;3;
73565;PMS5003;61846;52.970;-3.168;2023-04-10T15:07:45;4;1;
73565;PMS5003;61846;52.970;-3.168;2023-04-10T15:10:11;3;2;
73565;PMS5003;61846;52.970;-3.168;2023-04-10T15:12:36;4;1;
73565;PMS5003;61846;52.970;-3.168;2023-04-10T15:15:02;0;0;
73565;PMS5003;61846;52.970;-3.168;2023-04-10T15:17:27;2;0;
73565;PMS5003;61846;52.970;-3.168;2023-04-10T15:19:53;0;0;
73565;PMS5003;61846;52.970;-3.168;2023-04-10T15:22:18;3;3;
73565;PMS5003;61846;52.970;-3.168;2023-04-10T15:24:44;2;1;
73565;PMS5003;61846;52.970;-3.168;2023-04-10T15:27:09;0;0;
73565;PMS5003;61846;52.970;-3.168;2023-04-10T15:29:35;1;1;
73565;PMS5003;61846;52.970;-3.168;2023-04-10T15:32:00;2;0;
73565;PMS5003;61846;52.970;-3.168;2023-04-10T15:34:26;0;0;
73565;PMS5003;61846;52.970;-3.168;2023-04-10T15:36:51;1;0;
73565;PMS5003;61846;52.970;-3.168;2023-04-10T15:39:17;0;0;
73565;PMS5003;61846;52.970;-3.168;2023-04-10T15:41:42;1;0;
73565;PMS5003;61846;52.970;-3.168;2023-04-10T15:44:08;0;0;
73565;PMS5003;61846;52.970;-3.168;2023-04-10T15:46:33;0;0;
73565;PMS5003;61846;52.970;-3.168;2023-04-10T15:48:59;1;1;
73565;PMS5003;61846;52.970;-3.168;2023-04-10T15:51:25;2;0;
73565;PMS5003;61846;52.970;-3.168;2023-04-10T15:53:50;0;0;
73565;PMS5003;61846;52.970;-3.168;2023-04-10T15:56:16;2;2;
73565;PMS5003;61846;52.970;-3.168;2023-04-10T15:58:41;1;0;
73565;PMS5003;61846;52.970;-3.168;2023-04-10T16:01:07;0;0;
73565;PMS5003;61846;52.970;-3.168;2023-04-10T16:03:32;0;0;
73565;PMS5003;61846;52.970;-3.168;2023-04-10T16:05:58;0;0;
73565;PMS5003;61846;52.970;-3.168;2023-04-10T16:08:23;1;0;
73565;PMS5003;61846;52.970;-3.168;2023-04-10T16:10:49;0;0;
73565;PMS5003;61846;52.970;-3.168;2023-04-10T16:13:15;2;0;
73565;PMS5003;61846;52.970;-3.168;2023-04-10T16:15:40;3;0;
73565;PMS5003;61846;52.970;-3.168;2023-04-10T16:18:06;1;0;
73565;PMS5003;61846;52.970;-3.168;2023-04-10T16:20:31;1;1;
73565;PMS5003;61846;52.970;-3.168;2023-04-10T16:22:57;1;0;
73565;PMS5003;61846;52.970;-3.168;2023-04-10T16:25:22;0;0;
73565;PMS5003;61846;52.970;-3.168;2023-04-10T16:27:48;0;0;
73565;PMS5003;61846;52.970;-3.168;2023-04-10T16:30:13;1;1;
73565;PMS5003;61846;52.970;-3.168;2023-04-10T16:32:39;1;0;
73565;PMS5003;61846;52.970;-3.168;2023-04-10T16:35:05;0;0;
73565;PMS5003;61846;52.970;-3.168;2023-04-10T16:37:30;2;1;